sensor_id;sensor_type;location;lat;lon;timestamp;P1;durP1;ratioP1;P2;durP2;ratioP2
35205;SDS011;46555;45.620;13.796;2022-09-09T13:51:38;4.13;;;1.65;;
35205;SDS011;46555;45.620;13.796;2022-09-09T13:54:12;8.90;;;1.95;;
35205;SDS011;46555;45.620;13.796;2022-09-09T13:56:39;3.08;;;1.55;;
35205;SDS011;46555;45.620;13.796;2022-09-09T13:59:09;5.32;;;1.58;;
35205;SDS011;46555;45.620;13.796;2022-09-09T14:01:40;4.30;;;1.88;;
35205;SDS011;46555;45.620;13.796;2022-09-09T14:04:06;4.63;;;1.90;;
35205;SDS011;46555;45.620;13.796;2022-09-09T14:06:34;3.92;;;2.22;;
35205;SDS011;46555;45.620;13.796;2022-09-09T14:09:03;4.95;;;1.58;;
35205;SDS011;46555;45.620;13.796;2022-09-09T14:11:29;4.55;;;1.90;;
35205;SDS011;46555;45.620;13.796;2022-09-09T14:13:55;7.78;;;1.83;;
35205;SDS011;46555;45.620;13.796;2022-09-09T14:16:20;3.00;;;1.40;;
35205;SDS011;46555;45.620;13.796;2022-09-09T14:18:46;5.68;;;1.75;;
35205;SDS011;46555;45.620;13.796;2022-09-09T14:21:13;2.97;;;1.50;;
35205;SDS011;46555;45.620;13.796;2022-09-09T14:23:40;3.35;;;1.63;;
35205;SDS011;46555;45.620;13.796;2022-09-09T14:26:06;3.58;;;1.88;;
35205;SDS011;46555;45.620;13.796;2022-09-09T14:28:32;6.50;;;2.05;;
35205;SDS011;46555;45.620;13.796;2022-09-09T14:31:02;3.97;;;2.10;;
35205;SDS011;46555;45.620;13.796;2022-09-09T14:33:28;9.32;;;2.67;;
35205;SDS011;46555;45.620;13.796;2022-09-09T14:35:58;6.70;;;2.25;;
35205;SDS011;46555;45.620;13.796;2022-09-09T14:38:28;7.88;;;2.50;;
35205;SDS011;46555;45.620;13.796;2022-09-09T14:40:55;8.45;;;2.30;;
35205;SDS011;46555;45.620;13.796;2022-09-09T14:43:21;8.13;;;2.22;;
35205;SDS011;46555;45.620;13.796;2022-09-09T14:45:47;7.65;;;2.33;;
35205;SDS011;46555;45.620;13.796;2022-09-09T14:48:19;14.38;;;2.95;;
35205;SDS011;46555;45.620;13.796;2022-09-09T14:50:44;4.80;;;2.00;;
35205;SDS011;46555;45.620;13.796;2022-09-09T14:53:10;9.57;;;2.50;;
35205;SDS011;46555;45.620;13.796;2022-09-09T14:55:36;5.50;;;1.95;;
35205;SDS011;46555;45.620;13.796;2022-09-09T14:58:02;13.75;;;2.65;;
35205;SDS011;46555;45.620;13.796;2022-09-09T15:00:28;11.30;;;2.63;;
35205;SDS011;46555;45.620;13.796;2022-09-09T15:02:54;8.63;;;2.45;;
35205;SDS011;46555;45.620;13.796;2022-09-09T15:05:21;5.30;;;2.33;;
35205;SDS011;46555;45.620;13.796;2022-09-09T15:07:47;5.90;;;2.13;;
35205;SDS011;46555;45.620;13.796;2022-09-09T15:10:16;8.35;;;2.13;;
35205;SDS011;46555;45.620;13.796;2022-09-09T15:12:42;8.85;;;1.95;;
35205;SDS011;46555;45.620;13.796;2022-09-09T15:15:08;6.47;;;1.55;;
35205;SDS011;46555;45.620;13.796;2022-09-09T15:17:35;9.63;;;2.03;;
35205;SDS011;46555;45.620;13.796;2022-09-09T15:20:01;6.85;;;1.95;;
35205;SDS011;46555;45.620;13.796;2022-09-09T15:22:30;4.50;;;1.88;;
35205;SDS011;46555;45.620;13.796;2022-09-09T15:24:56;5.65;;;2.00;;
35205;SDS011;46555;45.620;13.796;2022-09-09T15:27:22;10.73;;;2.35;;
35205;SDS011;46555;45.620;13.796;2022-09-09T15:29:48;9.48;;;2.05;;
35205;SDS011;46555;45.620;13.796;2022-09-09T15:32:16;10.73;;;2.50;;
35205;SDS011;46555;45.620;13.796;2022-09-09T15:34:42;11.38;;;2.60;;
35205;SDS011;46555;45.620;13.796;2022-09-09T15:37:09;7.22;;;2.20;;
35205;SDS011;46555;45.620;13.796;2022-09-09T15:39:38;8.43;;;2.25;;
35205;SDS011;46555;45.620;13.796;2022-09-09T15:42:05;10.80;;;2.60;;
35205;SDS011;46555;45.620;13.796;2022-09-09T15:44:41;28.70;;;5.80;;
35205;SDS011;46555;45.620;13.796;2022-09-09T15:47:07;33.10;;;6.20;;
35205;SDS011;46555;45.620;13.796;2022-09-09T15:49:35;32.03;;;5.10;;
35205;SDS011;46555;45.620;13.796;2022-09-09T15:52:01;16.17;;;4.30;;
35205;SDS011;46555;45.620;13.796;2022-09-09T15:54:30;14.63;;;3.70;;
35205;SDS011;46555;45.620;13.796;2022-09-09T15:56:58;13.43;;;3.55;;
35205;SDS011;46555;45.620;13.796;2022-09-09T15:59:26;10.43;;;3.00;;
35205;SDS011;46555;45.620;13.796;2022-09-09T16:01:53;12.70;;;3.00;;
35205;SDS011;46555;45.620;13.796;2022-09-09T16:04:20;5.95;;;2.25;;
35205;SDS011;46555;45.620;13.796;2022-09-09T16:06:51;8.73;;;2.50;;
35205;SDS011;46555;45.620;13.796;2022-09-09T16:09:17;5.55;;;1.98;;
35205;SDS011;46555;45.620;13.796;2022-09-09T16:11:44;6.45;;;1.90;;
35205;SDS011;46555;45.620;13.796;2022-09-09T16:14:11;4.72;;;1.98;;
35205;SDS011;46555;45.620;13.796;2022-09-09T16:16:38;7.25;;;2.63;;
35205;SDS011;46555;45.620;13.796;2022-09-09T16:19:05;6.47;;;2.15;;
35205;SDS011;46555;45.620;13.796;2022-09-09T16:21:33;5.55;;;2.08;;
35205;SDS011;46555;45.620;13.796;2022-09-09T16:24:01;5.60;;;2.10;;
35205;SDS011;46555;45.620;13.796;2022-09-09T16:26:28;5.22;;;1.88;;
35205;SDS011;46555;45.620;13.796;2022-09-09T16:28:55;8.02;;;2.10;;
35205;SDS011;46555;45.620;13.796;2022-09-09T16:31:24;10.25;;;2.20;;
35205;SDS011;46555;45.620;13.796;2022-09-09T16:33:51;9.27;;;2.20;;
35205;SDS011;46555;45.620;13.796;2022-09-09T16:36:21;2.85;;;1.80;;
35205;SDS011;46555;45.620;13.796;2022-09-09T16:38:51;5.30;;;1.90;;
35205;SDS011;46555;45.620;13.796;2022-09-09T16:41:19;8.40;;;2.63;;
35205;SDS011;46555;45.620;13.796;2022-09-09T16:43:45;4.05;;;1.80;;
35205;SDS011;46555;45.620;13.796;2022-09-09T16:46:14;8.52;;;2.58;;
35205;SDS011;46555;45.620;13.796;2022-09-09T16:48:42;6.07;;;2.00;;
35205;SDS011;46555;45.620;13.796;2022-09-09T16:51:14;3.38;;;1.73;;
35205;SDS011;46555;45.620;13.796;2022-09-09T16:53:40;1.73;;;1.40;;
35205;SDS011;46555;45.620;13.796;2022-09-09T16:56:13;5.82;;;1.67;;
35205;SDS011;46555;45.620;13.796;2022-09-09T16:58:40;6.47;;;2.15;;
35205;SDS011;46555;45.620;13.796;2022-09-09T17:01:08;11.00;;;2.83;;
35205;SDS011;46555;45.620;13.796;2022-09-09T17:03:35;6.47;;;2.10;;
35205;SDS011;46555;45.620;13.796;2022-09-09T17:06:02;13.90;;;4.07;;
35205;SDS011;46555;45.620;13.796;2022-09-09T17:08:28;15.32;;;3.47;;
35205;SDS011;46555;45.620;13.796;2022-09-09T17:10:55;17.00;;;3.10;;
35205;SDS011;46555;45.620;13.796;2022-09-09T17:13:21;9.38;;;2.80;;
35205;SDS011;46555;45.620;13.796;2022-09-09T17:15:47;18.00;;;3.30;;
35205;SDS011;46555;45.620;13.796;2022-09-09T17:18:12;15.57;;;3.95;;
35205;SDS011;46555;45.620;13.796;2022-09-09T17:20:39;16.25;;;3.75;;
35205;SDS011;46555;45.620;13.796;2022-09-09T17:23:06;16.75;;;4.10;;
35205;SDS011;46555;45.620;13.796;2022-09-09T17:25:33;17.58;;;4.22;;
35205;SDS011;46555;45.620;13.796;2022-09-09T17:27:59;11.98;;;4.00;;
35205;SDS011;46555;45.620;13.796;2022-09-09T17:30:26;14.52;;;3.95;;
35205;SDS011;46555;45.620;13.796;2022-09-09T17:32:52;7.20;;;3.00;;
35205;SDS011;46555;45.620;13.796;2022-09-09T17:35:18;5.38;;;3.42;;
35205;SDS011;46555;45.620;13.796;2022-09-09T17:37:44;7.95;;;2.80;;
35205;SDS011;46555;45.620;13.796;2022-09-09T17:40:10;6.20;;;3.08;;
35205;SDS011;46555;45.620;13.796;2022-09-09T17:42:36;4.95;;;2.67;;
35205;SDS011;46555;45.620;13.796;2022-09-09T17:45:02;5.18;;;2.83;;
35205;SDS011;46555;45.620;13.796;2022-09-09T17:47:28;7.88;;;2.67;;
35205;SDS011;46555;45.620;13.796;2022-09-09T17:49:55;2.85;;;1.90;;
35205;SDS011;46555;45.620;13.796;2022-09-09T17:52:21;5.47;;;2.78;;
35205;SDS011;46555;45.620;13.796;2022-09-09T17:54:47;7.68;;;2.90;;
35205;SDS011;46555;45.620;13.796;2022-09-09T17:57:14;6.35;;;2.67;;
35205;SDS011;46555;45.620;13.796;2022-09-09T17:59:42;7.07;;;3.08;;
35205;SDS011;46555;45.620;13.796;2022-09-09T18:02:08;6.72;;;2.13;;
35205;SDS011;46555;45.620;13.796;2022-09-09T18:04:36;2.80;;;1.88;;
35205;SDS011;46555;45.620;13.796;2022-09-09T18:07:03;4.50;;;2.28;;
35205;SDS011;46555;45.620;13.796;2022-09-09T18:09:29;4.65;;;2.20;;
35205;SDS011;46555;45.620;13.796;2022-09-09T18:11:56;4.80;;;2.30;;
35205;SDS011;46555;45.620;13.796;2022-09-09T18:14:29;7.50;;;2.47;;
35205;SDS011;46555;45.620;13.796;2022-09-09T18:16:56;5.22;;;2.15;;
35205;SDS011;46555;45.620;13.796;2022-09-09T18:19:23;3.83;;;2.25;;
35205;SDS011;46555;45.620;13.796;2022-09-09T18:21:51;6.57;;;2.53;;
35205;SDS011;46555;45.620;13.796;2022-09-09T18:24:18;3.30;;;2.30;;
35205;SDS011;46555;45.620;13.796;2022-09-09T18:26:45;4.50;;;2.42;;
35205;SDS011;46555;45.620;13.796;2022-09-09T18:29:13;4.47;;;2.20;;
35205;SDS011;46555;45.620;13.796;2022-09-09T18:31:41;4.18;;;2.00;;
35205;SDS011;46555;45.620;13.796;2022-09-09T18:34:08;3.38;;;2.03;;
35205;SDS011;46555;45.620;13.796;2022-09-09T18:36:39;3.85;;;2.10;;
35205;SDS011;46555;45.620;13.796;2022-09-09T18:39:20;4.95;;;2.30;;
35205;SDS011;46555;45.620;13.796;2022-09-09T18:41:50;4.80;;;2.60;;
35205;SDS011;46555;45.620;13.796;2022-09-09T18:44:21;6.45;;;2.50;;
35205;SDS011;46555;45.620;13.796;2022-09-09T18:46:49;5.82;;;2.75;;
35205;SDS011;46555;45.620;13.796;2022-09-09T18:49:16;4.97;;;2.90;;
35205;SDS011;46555;45.620;13.796;2022-09-09T18:51:43;4.63;;;2.55;;
35205;SDS011;46555;45.620;13.796;2022-09-09T18:54:24;7.50;;;3.15;;
35205;SDS011;46555;45.620;13.796;2022-09-09T18:56:53;5.97;;;3.30;;
35205;SDS011;46555;45.620;13.796;2022-09-09T18:59:20;8.60;;;3.88;;
35205;SDS011;46555;45.620;13.796;2022-09-09T19:01:48;7.35;;;3.33;;
35205;SDS011;46555;45.620;13.796;2022-09-09T19:04:16;8.93;;;3.13;;
35205;SDS011;46555;45.620;13.796;2022-09-09T19:06:44;6.53;;;3.50;;
35205;SDS011;46555;45.620;13.796;2022-09-09T19:09:12;5.82;;;2.75;;
35205;SDS011;46555;45.620;13.796;2022-09-09T19:11:40;4.10;;;2.97;;
35205;SDS011;46555;45.620;13.796;2022-09-09T19:14:07;5.20;;;3.10;;
35205;SDS011;46555;45.620;13.796;2022-09-09T19:16:36;8.45;;;3.20;;
35205;SDS011;46555;45.620;13.796;2022-09-09T19:19:05;10.63;;;3.72;;
35205;SDS011;46555;45.620;13.796;2022-09-09T19:21:34;8.90;;;3.25;;
35205;SDS011;46555;45.620;13.796;2022-09-09T19:26:31;5.13;;;2.67;;
35205;SDS011;46555;45.620;13.796;2022-09-09T19:29:01;9.88;;;2.58;;
35205;SDS011;46555;45.620;13.796;2022-09-09T19:31:27;5.80;;;2.70;;
35205;SDS011;46555;45.620;13.796;2022-09-09T19:33:54;6.88;;;2.70;;
35205;SDS011;46555;45.620;13.796;2022-09-09T19:36:21;7.22;;;1.98;;
35205;SDS011;46555;45.620;13.796;2022-09-09T19:38:47;6.05;;;2.80;;
35205;SDS011;46555;45.620;13.796;2022-09-09T19:41:17;5.15;;;2.47;;
35205;SDS011;46555;45.620;13.796;2022-09-09T19:43:47;6.60;;;2.40;;
35205;SDS011;46555;45.620;13.796;2022-09-09T19:46:15;7.75;;;2.78;;
35205;SDS011;46555;45.620;13.796;2022-09-09T19:48:43;6.35;;;2.70;;
35205;SDS011;46555;45.620;13.796;2022-09-09T19:51:19;6.43;;;2.30;;
35205;SDS011;46555;45.620;13.796;2022-09-09T19:53:46;7.55;;;2.33;;
35205;SDS011;46555;45.620;13.796;2022-09-09T19:56:15;5.38;;;2.30;;
35205;SDS011;46555;45.620;13.796;2022-09-09T19:58:42;7.00;;;2.55;;
35205;SDS011;46555;45.620;13.796;2022-09-09T20:01:14;6.43;;;2.30;;
35205;SDS011;46555;45.620;13.796;2022-09-09T20:04:00;6.50;;;2.65;;
35205;SDS011;46555;45.620;13.796;2022-09-09T20:06:37;9.80;;;2.25;;
35205;SDS011;46555;45.620;13.796;2022-09-09T20:09:05;4.05;;;2.40;;
35205;SDS011;46555;45.620;13.796;2022-09-09T20:11:32;7.18;;;2.40;;
35205;SDS011;46555;45.620;13.796;2022-09-09T20:13:58;7.05;;;2.53;;
35205;SDS011;46555;45.620;13.796;2022-09-09T20:16:25;6.22;;;2.67;;
35205;SDS011;46555;45.620;13.796;2022-09-09T20:18:54;7.45;;;2.35;;
35205;SDS011;46555;45.620;13.796;2022-09-09T20:21:22;5.60;;;2.25;;
35205;SDS011;46555;45.620;13.796;2022-09-09T20:23:50;3.53;;;2.40;;
35205;SDS011;46555;45.620;13.796;2022-09-09T20:26:19;7.40;;;2.95;;
35205;SDS011;46555;45.620;13.796;2022-09-09T20:28:48;11.27;;;2.13;;
35205;SDS011;46555;45.620;13.796;2022-09-09T20:31:18;9.13;;;2.78;;
35205;SDS011;46555;45.620;13.796;2022-09-09T20:33:46;4.85;;;2.40;;
35205;SDS011;46555;45.620;13.796;2022-09-09T20:36:17;5.10;;;2.38;;
35205;SDS011;46555;45.620;13.796;2022-09-09T20:38:51;5.05;;;2.42;;
35205;SDS011;46555;45.620;13.796;2022-09-09T20:41:19;3.97;;;2.80;;
35205;SDS011;46555;45.620;13.796;2022-09-09T20:43:50;4.47;;;2.35;;
35205;SDS011;46555;45.620;13.796;2022-09-09T20:46:17;6.78;;;2.15;;
35205;SDS011;46555;45.620;13.796;2022-09-09T20:48:45;4.50;;;2.30;;
35205;SDS011;46555;45.620;13.796;2022-09-09T20:51:12;4.90;;;2.65;;
35205;SDS011;46555;45.620;13.796;2022-09-09T20:53:39;7.88;;;2.85;;
35205;SDS011;46555;45.620;13.796;2022-09-09T20:56:05;7.82;;;2.83;;
35205;SDS011;46555;45.620;13.796;2022-09-09T20:58:31;4.95;;;2.47;;
35205;SDS011;46555;45.620;13.796;2022-09-09T21:00:58;4.60;;;2.50;;
35205;SDS011;46555;45.620;13.796;2022-09-09T21:03:34;5.10;;;2.20;;
35205;SDS011;46555;45.620;13.796;2022-09-09T21:06:03;4.75;;;2.50;;
35205;SDS011;46555;45.620;13.796;2022-09-09T21:08:31;5.43;;;2.22;;
35205;SDS011;46555;45.620;13.796;2022-09-09T21:10:57;6.75;;;2.30;;
35205;SDS011;46555;45.620;13.796;2022-09-09T21:13:26;7.45;;;2.22;;
35205;SDS011;46555;45.620;13.796;2022-09-09T21:15:52;3.63;;;1.75;;
35205;SDS011;46555;45.620;13.796;2022-09-09T21:18:18;5.38;;;2.53;;
35205;SDS011;46555;45.620;13.796;2022-09-09T21:20:44;4.25;;;2.10;;
35205;SDS011;46555;45.620;13.796;2022-09-09T21:23:12;5.18;;;2.38;;
35205;SDS011;46555;45.620;13.796;2022-09-09T21:25:38;6.50;;;2.33;;
35205;SDS011;46555;45.620;13.796;2022-09-09T21:28:05;3.50;;;2.25;;
35205;SDS011;46555;45.620;13.796;2022-09-09T21:30:34;4.45;;;2.42;;
35205;SDS011;46555;45.620;13.796;2022-09-09T21:33:02;3.65;;;2.28;;
35205;SDS011;46555;45.620;13.796;2022-09-09T21:35:33;5.22;;;2.20;;
35205;SDS011;46555;45.620;13.796;2022-09-09T21:37:59;5.13;;;2.47;;
35205;SDS011;46555;45.620;13.796;2022-09-09T21:40:25;6.65;;;1.85;;
35205;SDS011;46555;45.620;13.796;2022-09-09T21:42:50;5.70;;;2.10;;
35205;SDS011;46555;45.620;13.796;2022-09-09T21:45:16;3.92;;;2.00;;
35205;SDS011;46555;45.620;13.796;2022-09-09T21:47:44;3.72;;;2.13;;
35205;SDS011;46555;45.620;13.796;2022-09-09T21:50:11;4.78;;;1.98;;
35205;SDS011;46555;45.620;13.796;2022-09-09T21:52:37;2.42;;;2.03;;
35205;SDS011;46555;45.620;13.796;2022-09-09T21:55:03;3.10;;;1.92;;
35205;SDS011;46555;45.620;13.796;2022-09-09T21:57:29;5.57;;;2.28;;
35205;SDS011;46555;45.620;13.796;2022-09-09T21:59:54;4.50;;;2.17;;
35205;SDS011;46555;45.620;13.796;2022-09-09T22:02:20;6.45;;;2.35;;
35205;SDS011;46555;45.620;13.796;2022-09-09T22:04:46;10.20;;;2.35;;
35205;SDS011;46555;45.620;13.796;2022-09-09T22:07:11;6.32;;;2.28;;
35205;SDS011;46555;45.620;13.796;2022-09-09T22:09:40;4.65;;;1.83;;
35205;SDS011;46555;45.620;13.796;2022-09-09T22:12:06;3.97;;;2.05;;
35205;SDS011;46555;45.620;13.796;2022-09-09T22:14:32;4.72;;;2.35;;
35205;SDS011;46555;45.620;13.796;2022-09-09T22:16:58;4.88;;;2.47;;
35205;SDS011;46555;45.620;13.796;2022-09-09T22:19:23;8.88;;;2.47;;
35205;SDS011;46555;45.620;13.796;2022-09-09T22:21:49;4.47;;;2.28;;
35205;SDS011;46555;45.620;13.796;2022-09-09T22:24:15;4.07;;;2.40;;
35205;SDS011;46555;45.620;13.796;2022-09-09T22:26:41;8.82;;;2.90;;
35205;SDS011;46555;45.620;13.796;2022-09-09T22:29:07;3.80;;;2.00;;
35205;SDS011;46555;45.620;13.796;2022-09-09T22:31:33;6.18;;;2.10;;
35205;SDS011;46555;45.620;13.796;2022-09-09T22:34:00;11.23;;;2.92;;
35205;SDS011;46555;45.620;13.796;2022-09-09T22:36:26;6.15;;;3.05;;
35205;SDS011;46555;45.620;13.796;2022-09-09T22:38:52;4.95;;;2.95;;
35205;SDS011;46555;45.620;13.796;2022-09-09T22:41:18;8.93;;;3.65;;
35205;SDS011;46555;45.620;13.796;2022-09-09T22:43:44;13.95;;;4.28;;
35205;SDS011;46555;45.620;13.796;2022-09-09T22:46:10;13.65;;;5.38;;
35205;SDS011;46555;45.620;13.796;2022-09-09T22:48:36;18.08;;;6.55;;
35205;SDS011;46555;45.620;13.796;2022-09-09T22:51:03;16.77;;;5.78;;
35205;SDS011;46555;45.620;13.796;2022-09-09T22:53:29;9.55;;;6.38;;
35205;SDS011;46555;45.620;13.796;2022-09-09T22:55:58;8.63;;;5.10;;
35205;SDS011;46555;45.620;13.796;2022-09-09T22:58:29;4.57;;;3.88;;
35205;SDS011;46555;45.620;13.796;2022-09-09T23:00:56;5.57;;;3.72;;
35205;SDS011;46555;45.620;13.796;2022-09-09T23:03:26;7.22;;;3.83;;
35205;SDS011;46555;45.620;13.796;2022-09-09T23:05:55;5.50;;;3.17;;
35205;SDS011;46555;45.620;13.796;2022-09-09T23:08:24;4.43;;;2.72;;
35205;SDS011;46555;45.620;13.796;2022-09-09T23:10:51;8.90;;;3.55;;
35205;SDS011;46555;45.620;13.796;2022-09-09T23:13:19;7.78;;;2.80;;
35205;SDS011;46555;45.620;13.796;2022-09-09T23:15:46;6.13;;;2.85;;
35205;SDS011;46555;45.620;13.796;2022-09-09T23:18:11;3.65;;;2.78;;
35205;SDS011;46555;45.620;13.796;2022-09-09T23:20:39;5.95;;;3.58;;
35205;SDS011;46555;45.620;13.796;2022-09-09T23:23:05;8.35;;;3.10;;
35205;SDS011;46555;45.620;13.796;2022-09-09T23:25:33;5.43;;;3.00;;
35205;SDS011;46555;45.620;13.796;2022-09-09T23:27:59;6.47;;;2.60;;
35205;SDS011;46555;45.620;13.796;2022-09-09T23:30:25;4.13;;;2.25;;
35205;SDS011;46555;45.620;13.796;2022-09-09T23:32:51;3.10;;;2.13;;
35205;SDS011;46555;45.620;13.796;2022-09-09T23:35:17;6.10;;;2.20;;
35205;SDS011;46555;45.620;13.796;2022-09-09T23:37:43;6.18;;;2.50;;
35205;SDS011;46555;45.620;13.796;2022-09-09T23:40:09;3.15;;;2.35;;
35205;SDS011;46555;45.620;13.796;2022-09-09T23:42:35;6.78;;;2.85;;
35205;SDS011;46555;45.620;13.796;2022-09-09T23:45:00;3.13;;;2.13;;
35205;SDS011;46555;45.620;13.796;2022-09-09T23:47:26;4.40;;;2.40;;
35205;SDS011;46555;45.620;13.796;2022-09-09T23:49:52;4.10;;;1.83;;
35205;SDS011;46555;45.620;13.796;2022-09-09T23:52:17;5.82;;;2.20;;
35205;SDS011;46555;45.620;13.796;2022-09-09T23:54:43;3.65;;;2.30;;
35205;SDS011;46555;45.620;13.796;2022-09-09T23:57:09;4.63;;;2.30;;
35205;SDS011;46555;45.620;13.796;2022-09-09T23:59:37;3.13;;;1.83;;
